CYDF/YDF METAR and TAF weather

Enter ICAO airport designator
Station Type Date Time Source
CYDF METAR 2020/01/22 15:35 UTC NOAA

CYDF 221535Z 22012KT 15SM -SN OVC030 M07/M13 A3048 RMK SC8 SLP325


Station Type Date Time Source
CYDF Decoded METAR 2020/01/22 15:35 UTC NOAA

Deer Lake, Nfld., Canada (CYDF) 49-13N 057-24W 22M
Jan 22, 2020 - 10:35 AM EST / 2020.01.22 1535 UTC
Wind: from the SW (220 degrees) at 14 MPH (12 KT):0
Visibility: 15 mile(s):0
Sky conditions: overcast
Weather: light snow
Temperature: 19 F (-7 C)
Windchill: 5 F (-15 C):1
Dew Point: 8 F (-13 C)
Relative Humidity: 62%
Pressure (altimeter): 30.48 in. Hg (1032 hPa)
ob: CYDF 221535Z 22012KT 15SM -SN OVC030 M07/M13 A3048 RMK SC8 SLP325
cycle: 15

Station Type Date Time Source
CYDF TAF 2020/01/22 14:39 UTC NOAA

TAF CYDF 221338Z 2214/2302 VRB03KT P6SM OVC030
FM222200 VRB03KT P6SM SCT030
RMK NXT FCST BY 222000Z

Example: see airport list